sensor_id;sensor_type;location;lat;lon;timestamp;pressure;altitude;pressure_sealevel;temperature;humidity
54924;BME280;40825;52.270;20.984;2022-09-30T00:00:18;100006.19;;;6.34;86.51
54924;BME280;40825;52.270;20.984;2022-09-30T00:01:00;100006.33;;;6.34;86.03
54924;BME280;40825;52.270;20.984;2022-09-30T00:01:32;100010.92;;;6.34;85.82
54924;BME280;40825;52.270;20.984;2022-09-30T00:01:54;100012.05;;;6.33;86.00
54924;BME280;40825;52.270;20.984;2022-09-30T00:02:16;100010.80;;;6.33;85.93
54924;BME280;40825;52.270;20.984;2022-09-30T00:02:37;100011.01;;;6.33;86.05
54924;BME280;40825;52.270;20.984;2022-09-30T00:02:59;100009.21;;;6.34;86.03
54924;BME280;40825;52.270;20.984;2022-09-30T00:03:20;100012.39;;;6.33;86.24
54924;BME280;40825;52.270;20.984;2022-09-30T00:03:42;100009.60;;;6.33;86.12
54924;BME280;40825;52.270;20.984;2022-09-30T00:04:04;100012.84;;;6.32;86.00
54924;BME280;40825;52.270;20.984;2022-09-30T00:04:26;100012.52;;;6.32;85.91
54924;BME280;40825;52.270;20.984;2022-09-30T00:04:47;100009.44;;;6.31;85.89
54924;BME280;40825;52.270;20.984;2022-09-30T00:05:09;100012.13;;;6.31;85.94
54924;BME280;40825;52.270;20.984;2022-09-30T00:05:30;100006.93;;;6.30;85.93
54924;BME280;40825;52.270;20.984;2022-09-30T00:05:58;100005.99;;;6.30;85.94
54924;BME280;40825;52.270;20.984;2022-09-30T00:06:22;100003.95;;;6.30;85.86
54924;BME280;40825;52.270;20.984;2022-09-30T00:06:44;100004.23;;;6.29;85.89
54924;BME280;40825;52.270;20.984;2022-09-30T00:07:06;100001.10;;;6.29;85.95
54924;BME280;40825;52.270;20.984;2022-09-30T00:07:28;100005.14;;;6.29;85.91
54924;BME280;40825;52.270;20.984;2022-09-30T00:07:50;100005.55;;;6.28;86.01
54924;BME280;40825;52.270;20.984;2022-09-30T00:08:14;100006.73;;;6.29;86.02
54924;BME280;40825;52.270;20.984;2022-09-30T00:08:35;100006.56;;;6.29;85.87
54924;BME280;40825;52.270;20.984;2022-09-30T00:08:57;100008.45;;;6.29;85.88
54924;BME280;40825;52.270;20.984;2022-09-30T00:09:19;100008.09;;;6.29;86.07
54924;BME280;40825;52.270;20.984;2022-09-30T00:09:41;100009.85;;;6.29;86.52
54924;BME280;40825;52.270;20.984;2022-09-30T00:10:03;100009.71;;;6.29;86.30
54924;BME280;40825;52.270;20.984;2022-09-30T00:10:27;100013.42;;;6.29;86.11
54924;BME280;40825;52.270;20.984;2022-09-30T00:10:57;100010.98;;;6.29;85.96
54924;BME280;40825;52.270;20.984;2022-09-30T00:11:19;100009.75;;;6.28;85.85
54924;BME280;40825;52.270;20.984;2022-09-30T00:11:41;100009.63;;;6.28;85.87
54924;BME280;40825;52.270;20.984;2022-09-30T00:12:03;100006.17;;;6.28;85.86
54924;BME280;40825;52.270;20.984;2022-09-30T00:12:25;100009.70;;;6.27;85.85
54924;BME280;40825;52.270;20.984;2022-09-30T00:12:47;100007.80;;;6.27;85.80
54924;BME280;40825;52.270;20.984;2022-09-30T00:13:09;100006.05;;;6.27;85.95
54924;BME280;40825;52.270;20.984;2022-09-30T00:13:31;100006.93;;;6.27;86.07
54924;BME280;40825;52.270;20.984;2022-09-30T00:13:53;100007.34;;;6.26;86.01
54924;BME280;40825;52.270;20.984;2022-09-30T00:14:17;100003.70;;;6.26;86.19
54924;BME280;40825;52.270;20.984;2022-09-30T00:14:39;100007.25;;;6.26;86.35
54924;BME280;40825;52.270;20.984;2022-09-30T00:15:01;100004.13;;;6.25;86.51
54924;BME280;40825;52.270;20.984;2022-09-30T00:15:24;100001.51;;;6.25;86.29
54924;BME280;40825;52.270;20.984;2022-09-30T00:15:45;100004.06;;;6.24;86.13
54924;BME280;40825;52.270;20.984;2022-09-30T00:16:08;100004.14;;;6.24;86.10
54924;BME280;40825;52.270;20.984;2022-09-30T00:16:34;100004.83;;;6.24;85.99
54924;BME280;40825;52.270;20.984;2022-09-30T00:16:56;100005.23;;;6.23;86.11
54924;BME280;40825;52.270;20.984;2022-09-30T00:17:17;100002.85;;;6.22;86.21
54924;BME280;40825;52.270;20.984;2022-09-30T00:17:39;100004.81;;;6.22;86.29
54924;BME280;40825;52.270;20.984;2022-09-30T00:18:00;100006.55;;;6.22;86.22
54924;BME280;40825;52.270;20.984;2022-09-30T00:18:22;100006.13;;;6.21;86.43
54924;BME280;40825;52.270;20.984;2022-09-30T00:18:44;100008.58;;;6.22;86.33
54924;BME280;40825;52.270;20.984;2022-09-30T00:19:05;100006.11;;;6.22;86.19
54924;BME280;40825;52.270;20.984;2022-09-30T00:19:27;100005.97;;;6.21;86.16
54924;BME280;40825;52.270;20.984;2022-09-30T00:19:48;100010.96;;;6.21;85.93
54924;BME280;40825;52.270;20.984;2022-09-30T00:20:10;100009.33;;;6.20;85.88
54924;BME280;40825;52.270;20.984;2022-09-30T00:20:33;100008.17;;;6.19;85.93
54924;BME280;40825;52.270;20.984;2022-09-30T00:20:55;100008.36;;;6.19;85.91
54924;BME280;40825;52.270;20.984;2022-09-30T00:21:17;100007.90;;;6.18;85.86
54924;BME280;40825;52.270;20.984;2022-09-30T00:21:38;100011.89;;;6.17;85.84
54924;BME280;40825;52.270;20.984;2022-09-30T00:22:00;100008.27;;;6.16;85.88
54924;BME280;40825;52.270;20.984;2022-09-30T00:22:22;100009.83;;;6.17;85.96
54924;BME280;40825;52.270;20.984;2022-09-30T00:22:43;100008.27;;;6.16;85.90
54924;BME280;40825;52.270;20.984;2022-09-30T00:23:05;100012.21;;;6.16;85.88
54924;BME280;40825;52.270;20.984;2022-09-30T00:23:27;100013.67;;;6.15;85.76
54924;BME280;40825;52.270;20.984;2022-09-30T00:23:49;100010.12;;;6.14;85.83
54924;BME280;40825;52.270;20.984;2022-09-30T00:24:11;100014.87;;;6.14;85.80
54924;BME280;40825;52.270;20.984;2022-09-30T00:24:32;100014.62;;;6.13;85.83
54924;BME280;40825;52.270;20.984;2022-09-30T00:24:55;100015.05;;;6.13;85.85
54924;BME280;40825;52.270;20.984;2022-09-30T00:25:17;100012.20;;;6.11;85.79
54924;BME280;40825;52.270;20.984;2022-09-30T00:25:38;100014.45;;;6.12;85.80
54924;BME280;40825;52.270;20.984;2022-09-30T00:26:01;100011.05;;;6.11;85.83
54924;BME280;40825;52.270;20.984;2022-09-30T00:26:23;100015.86;;;6.10;85.78
54924;BME280;40825;52.270;20.984;2022-09-30T00:26:45;100013.28;;;6.10;85.70
54924;BME280;40825;52.270;20.984;2022-09-30T00:27:06;100010.19;;;6.09;85.84
54924;BME280;40825;52.270;20.984;2022-09-30T00:27:28;100017.52;;;6.08;85.77
54924;BME280;40825;52.270;20.984;2022-09-30T00:27:51;100010.68;;;6.08;85.72
54924;BME280;40825;52.270;20.984;2022-09-30T00:28:15;100013.20;;;6.07;85.77
54924;BME280;40825;52.270;20.984;2022-09-30T00:28:37;100014.47;;;6.07;85.69
54924;BME280;40825;52.270;20.984;2022-09-30T00:28:59;100013.45;;;6.07;85.74
54924;BME280;40825;52.270;20.984;2022-09-30T00:29:22;100017.36;;;6.06;85.78
54924;BME280;40825;52.270;20.984;2022-09-30T00:29:43;100015.47;;;6.06;85.72
54924;BME280;40825;52.270;20.984;2022-09-30T00:30:05;100017.30;;;6.05;85.69
54924;BME280;40825;52.270;20.984;2022-09-30T00:30:27;100014.84;;;6.05;85.75
54924;BME280;40825;52.270;20.984;2022-09-30T00:30:49;100016.30;;;6.04;85.73
54924;BME280;40825;52.270;20.984;2022-09-30T00:31:14;100018.13;;;6.04;85.75
54924;BME280;40825;52.270;20.984;2022-09-30T00:31:36;100015.91;;;6.03;85.78
54924;BME280;40825;52.270;20.984;2022-09-30T00:31:58;100018.83;;;6.02;85.73
54924;BME280;40825;52.270;20.984;2022-09-30T00:32:20;100016.98;;;6.01;85.69
54924;BME280;40825;52.270;20.984;2022-09-30T00:32:41;100019.63;;;6.01;85.75
54924;BME280;40825;52.270;20.984;2022-09-30T00:33:03;100017.77;;;6.00;85.81
54924;BME280;40825;52.270;20.984;2022-09-30T00:33:24;100021.29;;;6.01;85.76
54924;BME280;40825;52.270;20.984;2022-09-30T00:33:47;100017.20;;;6.01;85.77
54924;BME280;40825;52.270;20.984;2022-09-30T00:34:27;100019.19;;;6.00;85.85
54924;BME280;40825;52.270;20.984;2022-09-30T00:34:48;100022.17;;;6.00;85.75
54924;BME280;40825;52.270;20.984;2022-09-30T00:35:10;100022.51;;;6.01;85.77
54924;BME280;40825;52.270;20.984;2022-09-30T00:35:31;100021.19;;;6.00;85.76
54924;BME280;40825;52.270;20.984;2022-09-30T00:35:53;100022.20;;;6.00;85.76
54924;BME280;40825;52.270;20.984;2022-09-30T00:36:14;100022.80;;;5.99;85.78
54924;BME280;40825;52.270;20.984;2022-09-30T00:36:37;100025.09;;;6.00;85.72
54924;BME280;40825;52.270;20.984;2022-09-30T00:36:59;100024.44;;;5.99;85.74
54924;BME280;40825;52.270;20.984;2022-09-30T00:37:23;100023.94;;;5.99;85.71
54924;BME280;40825;52.270;20.984;2022-09-30T00:37:44;100023.60;;;5.99;85.82
54924;BME280;40825;52.270;20.984;2022-09-30T00:38:06;100026.09;;;5.99;85.78
54924;BME280;40825;52.270;20.984;2022-09-30T00:38:27;100024.57;;;5.98;85.73
54924;BME280;40825;52.270;20.984;2022-09-30T00:38:49;100023.55;;;5.98;85.76
54924;BME280;40825;52.270;20.984;2022-09-30T00:39:13;100026.20;;;5.98;85.81
54924;BME280;40825;52.270;20.984;2022-09-30T00:39:35;100022.15;;;5.98;85.70
54924;BME280;40825;52.270;20.984;2022-09-30T00:39:57;100023.88;;;5.96;85.74
54924;BME280;40825;52.270;20.984;2022-09-30T00:40:19;100023.58;;;5.96;85.72
54924;BME280;40825;52.270;20.984;2022-09-30T00:40:41;100022.85;;;5.96;85.75
54924;BME280;40825;52.270;20.984;2022-09-30T00:41:03;100025.44;;;5.95;85.68
54924;BME280;40825;52.270;20.984;2022-09-30T00:41:25;100021.52;;;5.95;85.63
54924;BME280;40825;52.270;20.984;2022-09-30T00:41:49;100018.70;;;5.94;85.68
54924;BME280;40825;52.270;20.984;2022-09-30T00:42:13;100022.96;;;5.93;85.72
54924;BME280;40825;52.270;20.984;2022-09-30T00:42:35;100017.98;;;5.92;85.77
54924;BME280;40825;52.270;20.984;2022-09-30T00:43:00;100021.20;;;5.91;85.77
54924;BME280;40825;52.270;20.984;2022-09-30T00:44:39;100022.48;;;5.90;85.74
54924;BME280;40825;52.270;20.984;2022-09-30T00:44:45;100025.74;;;5.89;85.77
54924;BME280;40825;52.270;20.984;2022-09-30T00:45:09;100025.08;;;5.88;85.77
54924;BME280;40825;52.270;20.984;2022-09-30T00:45:31;100024.95;;;5.88;85.76
54924;BME280;40825;52.270;20.984;2022-09-30T00:45:53;100027.48;;;5.88;85.78
54924;BME280;40825;52.270;20.984;2022-09-30T00:46:22;100027.44;;;5.88;85.73
54924;BME280;40825;52.270;20.984;2022-09-30T00:46:45;100027.18;;;5.87;85.73
54924;BME280;40825;52.270;20.984;2022-09-30T00:48:11;100023.04;;;5.86;85.79
54924;BME280;40825;52.270;20.984;2022-09-30T00:48:34;100025.33;;;5.86;85.79
54924;BME280;40825;52.270;20.984;2022-09-30T00:48:58;100021.17;;;5.86;85.86
54924;BME280;40825;52.270;20.984;2022-09-30T00:49:23;100023.02;;;5.87;85.88
54924;BME280;40825;52.270;20.984;2022-09-30T00:49:46;100020.56;;;5.86;85.79
54924;BME280;40825;52.270;20.984;2022-09-30T00:50:39;100017.13;;;5.86;85.77
54924;BME280;40825;52.270;20.984;2022-09-30T00:51:09;100021.09;;;5.85;85.79
54924;BME280;40825;52.270;20.984;2022-09-30T00:51:32;100018.42;;;5.85;85.78
54924;BME280;40825;52.270;20.984;2022-09-30T00:51:56;100016.52;;;5.84;85.76
54924;BME280;40825;52.270;20.984;2022-09-30T00:52:18;100017.73;;;5.85;85.77
54924;BME280;40825;52.270;20.984;2022-09-30T00:52:42;100014.96;;;5.84;85.73
54924;BME280;40825;52.270;20.984;2022-09-30T00:53:48;100017.45;;;5.84;85.79
54924;BME280;40825;52.270;20.984;2022-09-30T00:53:51;100015.33;;;5.84;85.80
54924;BME280;40825;52.270;20.984;2022-09-30T00:54:22;100017.86;;;5.84;85.83
54924;BME280;40825;52.270;20.984;2022-09-30T00:54:46;100022.61;;;5.84;85.86
54924;BME280;40825;52.270;20.984;2022-09-30T00:55:09;100023.05;;;5.83;85.78
54924;BME280;40825;52.270;20.984;2022-09-30T00:55:59;100023.05;;;5.83;85.81
54924;BME280;40825;52.270;20.984;2022-09-30T00:56:23;100023.98;;;5.83;85.86
54924;BME280;40825;52.270;20.984;2022-09-30T00:56:48;100024.05;;;5.82;85.87
54924;BME280;40825;52.270;20.984;2022-09-30T00:57:11;100023.06;;;5.81;85.90
54924;BME280;40825;52.270;20.984;2022-09-30T00:57:33;100025.38;;;5.81;85.88
54924;BME280;40825;52.270;20.984;2022-09-30T00:57:55;100024.52;;;5.81;85.84
54924;BME280;40825;52.270;20.984;2022-09-30T00:58:22;100029.50;;;5.80;85.84
54924;BME280;40825;52.270;20.984;2022-09-30T00:58:52;100027.77;;;5.80;85.92
54924;BME280;40825;52.270;20.984;2022-09-30T00:59:17;100026.96;;;5.79;85.91
54924;BME280;40825;52.270;20.984;2022-09-30T00:59:40;100030.05;;;5.78;85.90
54924;BME280;40825;52.270;20.984;2022-09-30T01:00:03;100028.48;;;5.78;85.95
54924;BME280;40825;52.270;20.984;2022-09-30T01:00:25;100029.06;;;5.78;85.82
54924;BME280;40825;52.270;20.984;2022-09-30T01:00:47;100028.36;;;5.78;85.98
54924;BME280;40825;52.270;20.984;2022-09-30T01:01:11;100028.60;;;5.77;86.00
54924;BME280;40825;52.270;20.984;2022-09-30T01:01:32;100029.69;;;5.77;85.98
54924;BME280;40825;52.270;20.984;2022-09-30T01:01:55;100028.30;;;5.77;85.92
54924;BME280;40825;52.270;20.984;2022-09-30T01:02:16;100030.20;;;5.77;85.88
54924;BME280;40825;52.270;20.984;2022-09-30T01:02:38;100028.88;;;5.76;85.86
54924;BME280;40825;52.270;20.984;2022-09-30T01:02:59;100026.42;;;5.76;85.88
54924;BME280;40825;52.270;20.984;2022-09-30T01:03:22;100028.73;;;5.76;85.84
54924;BME280;40825;52.270;20.984;2022-09-30T01:03:45;100025.45;;;5.75;85.81
54924;BME280;40825;52.270;20.984;2022-09-30T01:04:11;100024.27;;;5.75;85.85
54924;BME280;40825;52.270;20.984;2022-09-30T01:04:33;100022.20;;;5.74;85.92
54924;BME280;40825;52.270;20.984;2022-09-30T01:04:55;100022.60;;;5.74;85.92
54924;BME280;40825;52.270;20.984;2022-09-30T01:05:17;100022.40;;;5.74;85.90
54924;BME280;40825;52.270;20.984;2022-09-30T01:05:39;100020.16;;;5.74;85.84
54924;BME280;40825;52.270;20.984;2022-09-30T01:06:01;100020.76;;;5.73;85.84
54924;BME280;40825;52.270;20.984;2022-09-30T01:06:23;100019.70;;;5.73;85.84
54924;BME280;40825;52.270;20.984;2022-09-30T01:06:45;100017.91;;;5.73;85.88
54924;BME280;40825;52.270;20.984;2022-09-30T01:07:06;100017.24;;;5.73;85.86
54924;BME280;40825;52.270;20.984;2022-09-30T01:07:28;100015.66;;;5.73;85.90
54924;BME280;40825;52.270;20.984;2022-09-30T01:07:50;100012.48;;;5.73;85.92
54924;BME280;40825;52.270;20.984;2022-09-30T01:08:12;100012.14;;;5.73;85.94
54924;BME280;40825;52.270;20.984;2022-09-30T01:08:34;100013.87;;;5.73;85.82
54924;BME280;40825;52.270;20.984;2022-09-30T01:08:57;100016.52;;;5.73;85.88
54924;BME280;40825;52.270;20.984;2022-09-30T01:09:18;100016.02;;;5.73;85.95
54924;BME280;40825;52.270;20.984;2022-09-30T01:09:41;100014.23;;;5.73;85.90
54924;BME280;40825;52.270;20.984;2022-09-30T01:10:03;100013.98;;;5.72;85.91
54924;BME280;40825;52.270;20.984;2022-09-30T01:10:25;100016.32;;;5.72;85.97
54924;BME280;40825;52.270;20.984;2022-09-30T01:10:46;100020.55;;;5.72;85.99
54924;BME280;40825;52.270;20.984;2022-09-30T01:11:08;100018.84;;;5.71;86.01
54924;BME280;40825;52.270;20.984;2022-09-30T01:11:30;100019.59;;;5.71;85.97
54924;BME280;40825;52.270;20.984;2022-09-30T01:11:51;100021.27;;;5.70;85.97
54924;BME280;40825;52.270;20.984;2022-09-30T01:12:15;100021.98;;;5.70;85.86
54924;BME280;40825;52.270;20.984;2022-09-30T01:12:38;100019.70;;;5.70;85.93
54924;BME280;40825;52.270;20.984;2022-09-30T01:13:03;100024.38;;;5.69;85.99
54924;BME280;40825;52.270;20.984;2022-09-30T01:13:25;100023.91;;;5.69;85.99
54924;BME280;40825;52.270;20.984;2022-09-30T01:13:50;100022.22;;;5.68;85.98
54924;BME280;40825;52.270;20.984;2022-09-30T01:14:14;100023.06;;;5.68;85.95
54924;BME280;40825;52.270;20.984;2022-09-30T01:14:37;100022.71;;;5.68;86.00
54924;BME280;40825;52.270;20.984;2022-09-30T01:15:01;100021.34;;;5.68;85.96
54924;BME280;40825;52.270;20.984;2022-09-30T01:15:23;100020.10;;;5.68;85.97
54924;BME280;40825;52.270;20.984;2022-09-30T01:17:43;100020.33;;;5.67;85.89
54924;BME280;40825;52.270;20.984;2022-09-30T01:18:09;100019.30;;;5.67;85.91
54924;BME280;40825;52.270;20.984;2022-09-30T01:19:28;100020.44;;;5.68;85.89
54924;BME280;40825;52.270;20.984;2022-09-30T01:20:18;100019.07;;;5.68;85.96
54924;BME280;40825;52.270;20.984;2022-09-30T01:20:53;100021.36;;;5.68;85.82
54924;BME280;40825;52.270;20.984;2022-09-30T01:23:22;100015.04;;;5.66;85.93
54924;BME280;40825;52.270;20.984;2022-09-30T01:27:50;100007.09;;;5.66;86.01
54924;BME280;40825;52.270;20.984;2022-09-30T01:30:11;100015.02;;;5.64;85.92
54924;BME280;40825;52.270;20.984;2022-09-30T01:31:56;100015.84;;;5.63;85.88
54924;BME280;40825;52.270;20.984;2022-09-30T01:33:18;100017.25;;;5.62;85.95
54924;BME280;40825;52.270;20.984;2022-09-30T01:34:57;100021.16;;;5.59;85.98
54924;BME280;40825;52.270;20.984;2022-09-30T01:36:02;100026.44;;;5.58;86.00
54924;BME280;40825;52.270;20.984;2022-09-30T01:36:34;100023.20;;;5.57;86.01
54924;BME280;40825;52.270;20.984;2022-09-30T01:38:08;100027.17;;;5.56;85.99
54924;BME280;40825;52.270;20.984;2022-09-30T01:38:40;100028.96;;;5.56;85.92
54924;BME280;40825;52.270;20.984;2022-09-30T01:39:08;100028.03;;;5.55;86.02
54924;BME280;40825;52.270;20.984;2022-09-30T01:41:07;100030.65;;;5.48;85.99
54924;BME280;40825;52.270;20.984;2022-09-30T01:42:09;100031.76;;;5.45;86.00
54924;BME280;40825;52.270;20.984;2022-09-30T01:44:09;100030.89;;;5.41;86.02
54924;BME280;40825;52.270;20.984;2022-09-30T01:45:14;100026.33;;;5.40;85.98
54924;BME280;40825;52.270;20.984;2022-09-30T01:45:41;100025.63;;;5.39;86.04
54924;BME280;40825;52.270;20.984;2022-09-30T01:46:45;100027.08;;;5.39;86.06
54924;BME280;40825;52.270;20.984;2022-09-30T01:47:11;100028.81;;;5.39;86.16
54924;BME280;40825;52.270;20.984;2022-09-30T01:47:46;100031.02;;;5.38;86.23
54924;BME280;40825;52.270;20.984;2022-09-30T01:48:37;100031.12;;;5.39;86.20
54924;BME280;40825;52.270;20.984;2022-09-30T01:49:09;100030.33;;;5.38;86.21
54924;BME280;40825;52.270;20.984;2022-09-30T01:50:26;100034.59;;;5.38;86.19
54924;BME280;40825;52.270;20.984;2022-09-30T01:50:57;100036.14;;;5.38;86.20
54924;BME280;40825;52.270;20.984;2022-09-30T01:51:26;100037.86;;;5.39;86.23
54924;BME280;40825;52.270;20.984;2022-09-30T01:53:22;100040.05;;;5.38;86.28
54924;BME280;40825;52.270;20.984;2022-09-30T01:53:46;100037.41;;;5.38;86.24
54924;BME280;40825;52.270;20.984;2022-09-30T01:54:25;100041.48;;;5.38;86.26
54924;BME280;40825;52.270;20.984;2022-09-30T01:55:23;100042.13;;;5.38;86.26
54924;BME280;40825;52.270;20.984;2022-09-30T01:56:34;100036.77;;;5.39;86.32
54924;BME280;40825;52.270;20.984;2022-09-30T01:56:36;100039.66;;;5.39;86.27
54924;BME280;40825;52.270;20.984;2022-09-30T01:57:02;100039.61;;;5.39;86.29
54924;BME280;40825;52.270;20.984;2022-09-30T01:57:31;100040.48;;;5.39;86.18
54924;BME280;40825;52.270;20.984;2022-09-30T01:58:35;100044.16;;;5.39;86.28
54924;BME280;40825;52.270;20.984;2022-09-30T01:59:07;100044.13;;;5.40;86.17
54924;BME280;40825;52.270;20.984;2022-09-30T01:59:32;100044.33;;;5.39;86.28
54924;BME280;40825;52.270;20.984;2022-09-30T01:59:57;100043.00;;;5.39;86.26
54924;BME280;40825;52.270;20.984;2022-09-30T02:00:23;100044.17;;;5.40;86.21
54924;BME280;40825;52.270;20.984;2022-09-30T02:00:46;100047.57;;;5.39;86.40
54924;BME280;40825;52.270;20.984;2022-09-30T02:01:12;100050.21;;;5.39;86.40
54924;BME280;40825;52.270;20.984;2022-09-30T02:01:43;100047.96;;;5.38;86.39
54924;BME280;40825;52.270;20.984;2022-09-30T02:02:12;100047.59;;;5.39;86.37
54924;BME280;40825;52.270;20.984;2022-09-30T02:02:37;100048.70;;;5.38;86.35
54924;BME280;40825;52.270;20.984;2022-09-30T02:03:03;100049.91;;;5.38;86.45
54924;BME280;40825;52.270;20.984;2022-09-30T02:03:30;100049.35;;;5.39;86.40
54924;BME280;40825;52.270;20.984;2022-09-30T02:03:54;100055.17;;;5.39;86.31
54924;BME280;40825;52.270;20.984;2022-09-30T02:04:25;100054.98;;;5.39;86.32
54924;BME280;40825;52.270;20.984;2022-09-30T02:04:52;100052.67;;;5.39;86.30
54924;BME280;40825;52.270;20.984;2022-09-30T02:05:19;100049.88;;;5.39;86.40
54924;BME280;40825;52.270;20.984;2022-09-30T02:05:44;100054.95;;;5.39;86.30
54924;BME280;40825;52.270;20.984;2022-09-30T02:06:12;100058.75;;;5.40;86.30
54924;BME280;40825;52.270;20.984;2022-09-30T02:06:39;100056.54;;;5.39;86.23
54924;BME280;40825;52.270;20.984;2022-09-30T02:07:04;100055.77;;;5.40;86.23
54924;BME280;40825;52.270;20.984;2022-09-30T02:07:38;100054.61;;;5.39;86.29
54924;BME280;40825;52.270;20.984;2022-09-30T02:08:03;100055.47;;;5.39;86.26
54924;BME280;40825;52.270;20.984;2022-09-30T02:09:31;100057.30;;;5.39;86.27
54924;BME280;40825;52.270;20.984;2022-09-30T02:09:58;100056.63;;;5.38;86.20
54924;BME280;40825;52.270;20.984;2022-09-30T02:10:30;100059.02;;;5.39;86.22
54924;BME280;40825;52.270;20.984;2022-09-30T02:10:56;100057.63;;;5.39;86.20
54924;BME280;40825;52.270;20.984;2022-09-30T02:11:24;100060.67;;;5.38;86.33
54924;BME280;40825;52.270;20.984;2022-09-30T02:11:47;100056.89;;;5.37;86.25
54924;BME280;40825;52.270;20.984;2022-09-30T02:12:11;100058.20;;;5.37;86.16
54924;BME280;40825;52.270;20.984;2022-09-30T02:12:36;100057.37;;;5.36;86.28
54924;BME280;40825;52.270;20.984;2022-09-30T02:13:02;100060.44;;;5.35;86.13
54924;BME280;40825;52.270;20.984;2022-09-30T02:13:28;100058.74;;;5.35;86.18
54924;BME280;40825;52.270;20.984;2022-09-30T02:13:59;100061.08;;;5.34;86.28
54924;BME280;40825;52.270;20.984;2022-09-30T02:14:49;100063.14;;;5.33;86.16
54924;BME280;40825;52.270;20.984;2022-09-30T02:15:18;100063.64;;;5.32;86.23
54924;BME280;40825;52.270;20.984;2022-09-30T02:15:45;100065.33;;;5.31;86.11
54924;BME280;40825;52.270;20.984;2022-09-30T02:16:10;100065.46;;;5.32;86.22
54924;BME280;40825;52.270;20.984;2022-09-30T02:16:37;100067.68;;;5.31;86.34
54924;BME280;40825;52.270;20.984;2022-09-30T02:17:02;100069.14;;;5.30;86.27
54924;BME280;40825;52.270;20.984;2022-09-30T02:17:27;100066.77;;;5.29;86.35
54924;BME280;40825;52.270;20.984;2022-09-30T02:18:00;100069.24;;;5.29;86.31
54924;BME280;40825;52.270;20.984;2022-09-30T02:19:18;100070.89;;;5.29;86.42
54924;BME280;40825;52.270;20.984;2022-09-30T02:19:42;100070.63;;;5.28;86.35
54924;BME280;40825;52.270;20.984;2022-09-30T02:20:06;100075.75;;;5.27;86.25
54924;BME280;40825;52.270;20.984;2022-09-30T02:20:32;100075.23;;;5.28;86.38
54924;BME280;40825;52.270;20.984;2022-09-30T02:20:58;100070.91;;;5.27;86.50
54924;BME280;40825;52.270;20.984;2022-09-30T02:21:22;100074.05;;;5.27;86.29
54924;BME280;40825;52.270;20.984;2022-09-30T02:21:49;100076.31;;;5.27;86.38
54924;BME280;40825;52.270;20.984;2022-09-30T02:22:16;100074.95;;;5.27;86.41
54924;BME280;40825;52.270;20.984;2022-09-30T02:22:40;100077.96;;;5.27;86.33
54924;BME280;40825;52.270;20.984;2022-09-30T02:23:25;100077.01;;;5.26;86.36
54924;BME280;40825;52.270;20.984;2022-09-30T02:23:48;100076.93;;;5.27;86.29
54924;BME280;40825;52.270;20.984;2022-09-30T02:24:14;100081.37;;;5.26;86.31
54924;BME280;40825;52.270;20.984;2022-09-30T02:24:37;100079.84;;;5.26;86.26
54924;BME280;40825;52.270;20.984;2022-09-30T02:25:00;100075.06;;;5.24;86.32
54924;BME280;40825;52.270;20.984;2022-09-30T02:25:25;100077.21;;;5.24;86.26
54924;BME280;40825;52.270;20.984;2022-09-30T02:25:52;100077.42;;;5.23;86.31
54924;BME280;40825;52.270;20.984;2022-09-30T02:26:20;100077.79;;;5.23;86.31
54924;BME280;40825;52.270;20.984;2022-09-30T02:26:43;100075.84;;;5.23;86.27
54924;BME280;40825;52.270;20.984;2022-09-30T02:27:11;100074.59;;;5.23;86.29
54924;BME280;40825;52.270;20.984;2022-09-30T02:27:36;100076.54;;;5.23;86.34
54924;BME280;40825;52.270;20.984;2022-09-30T02:28:04;100076.65;;;5.24;86.31
54924;BME280;40825;52.270;20.984;2022-09-30T02:28:27;100076.33;;;5.23;86.34
54924;BME280;40825;52.270;20.984;2022-09-30T02:28:52;100074.65;;;5.23;86.32
54924;BME280;40825;52.270;20.984;2022-09-30T02:29:19;100073.92;;;5.23;86.30
54924;BME280;40825;52.270;20.984;2022-09-30T02:29:45;100073.30;;;5.22;86.16
54924;BME280;40825;52.270;20.984;2022-09-30T02:30:10;100069.27;;;5.22;86.32
54924;BME280;40825;52.270;20.984;2022-09-30T02:30:33;100074.36;;;5.22;86.38
54924;BME280;40825;52.270;20.984;2022-09-30T02:30:57;100070.64;;;5.22;86.36
54924;BME280;40825;52.270;20.984;2022-09-30T02:31:21;100071.39;;;5.22;86.36
54924;BME280;40825;52.270;20.984;2022-09-30T02:31:45;100070.84;;;5.22;86.35
54924;BME280;40825;52.270;20.984;2022-09-30T02:32:12;100073.82;;;5.22;86.37
54924;BME280;40825;52.270;20.984;2022-09-30T02:33:14;100073.80;;;5.23;86.31
54924;BME280;40825;52.270;20.984;2022-09-30T02:33:42;100077.14;;;5.22;86.36
54924;BME280;40825;52.270;20.984;2022-09-30T02:34:35;100079.02;;;5.23;86.34
54924;BME280;40825;52.270;20.984;2022-09-30T02:35:04;100083.95;;;5.23;86.37
54924;BME280;40825;52.270;20.984;2022-09-30T02:35:30;100082.70;;;5.23;86.36
54924;BME280;40825;52.270;20.984;2022-09-30T02:35:56;100083.09;;;5.23;86.34
54924;BME280;40825;52.270;20.984;2022-09-30T02:36:37;100084.38;;;5.22;86.30
54924;BME280;40825;52.270;20.984;2022-09-30T02:37:04;100084.98;;;5.22;86.28
54924;BME280;40825;52.270;20.984;2022-09-30T02:37:33;100085.91;;;5.21;86.29
54924;BME280;40825;52.270;20.984;2022-09-30T02:38:01;100085.57;;;5.21;86.29
54924;BME280;40825;52.270;20.984;2022-09-30T02:38:25;100086.90;;;5.20;86.27
54924;BME280;40825;52.270;20.984;2022-09-30T02:38:50;100088.32;;;5.20;86.29
54924;BME280;40825;52.270;20.984;2022-09-30T02:39:19;100086.73;;;5.20;86.36
54924;BME280;40825;52.270;20.984;2022-09-30T02:39:48;100087.83;;;5.20;86.41
54924;BME280;40825;52.270;20.984;2022-09-30T02:40:26;100086.30;;;5.21;86.47
54924;BME280;40825;52.270;20.984;2022-09-30T02:41:18;100083.31;;;5.21;86.29